createdAt,value
2018-01-02T00:01:18.226Z,36.30
2018-01-02T00:03:44.862Z,39.72
2018-01-02T00:06:11.619Z,38.08
2018-01-02T00:08:39.276Z,26.60
2018-01-02T00:11:05.903Z,28.50
2018-01-02T00:13:32.586Z,27.35
2018-01-02T00:15:59.244Z,29.92
2018-01-02T00:18:25.891Z,64.37
2018-01-02T00:20:52.556Z,31.52
2018-01-02T00:23:19.976Z,27.85
2018-01-02T00:25:46.623Z,33.08
2018-01-02T00:28:13.492Z,28.05
2018-01-02T00:30:40.148Z,34.65
2018-01-02T00:33:07.526Z,33.05
2018-01-02T00:35:35.116Z,36.97
2018-01-02T00:38:01.777Z,32.47
2018-01-02T00:40:28.466Z,28.50
2018-01-02T00:42:56.736Z,41.33
2018-01-02T00:45:24.171Z,38.15
2018-01-02T00:47:51.641Z,45.80
2018-01-02T00:50:18.346Z,36.45
2018-01-02T00:52:45.010Z,34.20
2018-01-02T00:55:11.663Z,35.15
2018-01-02T00:57:38.357Z,38.60
2018-01-02T01:00:05.015Z,30.30
2018-01-02T01:02:31.710Z,33.88
2018-01-02T01:04:59.136Z,41.50
2018-01-02T01:07:25.822Z,32.45
2018-01-02T01:09:53.228Z,46.37
2018-01-02T01:12:19.880Z,39.95
2018-01-02T01:14:46.549Z,34.83
2018-01-02T01:17:13.208Z,75.93
2018-01-02T01:19:40.629Z,34.50
2018-01-02T01:22:07.325Z,27.40
2018-01-02T01:24:34.006Z,37.28
2018-01-02T01:27:00.686Z,38.83
2018-01-02T01:29:28.104Z,41.75
2018-01-02T01:31:55.585Z,41.47
2018-01-02T01:34:22.321Z,34.05
2018-01-02T01:36:49.766Z,33.65
2018-01-02T01:39:16.422Z,271.65
2018-01-02T01:41:43.108Z,118.78
2018-01-02T01:44:10.505Z,54.50
2018-01-02T01:46:37.185Z,55.20
2018-01-02T01:49:03.840Z,54.78
2018-01-02T01:51:30.468Z,58.83
2018-01-02T01:53:57.189Z,47.83
2018-01-02T01:56:24.807Z,42.10
2018-01-02T01:58:52.199Z,30.33
2018-01-02T02:01:18.988Z,37.95
2018-01-02T02:03:45.642Z,30.65
2018-01-02T02:06:12.335Z,39.80
2018-01-02T02:08:39.024Z,31.77
2018-01-02T02:11:05.653Z,32.80
2018-01-02T02:13:32.322Z,37.67
2018-01-02T02:15:59.736Z,40.42
2018-01-02T02:18:26.390Z,33.60
2018-01-02T02:20:53.039Z,37.28
2018-01-02T02:23:19.816Z,41.15
2018-01-02T02:25:47.207Z,31.50
2018-01-02T02:28:14.692Z,38.28
2018-01-02T02:30:41.386Z,35.33
2018-01-02T02:33:08.053Z,38.80
2018-01-02T02:35:34.730Z,43.75
2018-01-02T02:38:01.395Z,40.60
2018-01-02T02:40:34.968Z,43.28
2018-01-02T02:43:01.660Z,41.42
2018-01-02T02:45:29.049Z,40.35
2018-01-02T02:47:55.733Z,33.70
2018-01-02T02:50:22.395Z,36.42
2018-01-02T02:52:49.803Z,47.42
2018-01-02T02:55:16.476Z,49.35
2018-01-02T02:57:43.112Z,43.95
2018-01-02T03:00:09.766Z,47.13
2018-01-02T03:02:36.456Z,37.08
2018-01-02T03:05:03.102Z,40.10
2018-01-02T03:07:29.767Z,41.00
2018-01-02T03:09:56.440Z,38.95
2018-01-02T03:12:23.901Z,31.55
2018-01-02T03:14:50.550Z,38.67
2018-01-02T03:17:18.935Z,36.78
2018-01-02T03:19:46.349Z,35.10
2018-01-02T03:22:13.002Z,33.08
2018-01-02T03:24:39.709Z,41.22
2018-01-02T03:27:06.372Z,195.20
2018-01-02T03:29:33.010Z,95.22
2018-01-02T03:31:59.718Z,53.45
2018-01-02T03:34:27.954Z,372.15
2018-01-02T03:36:54.626Z,92.60
2018-01-02T03:39:22.062Z,70.70
2018-01-02T03:41:48.726Z,55.50
2018-01-02T03:44:15.415Z,49.47
2018-01-02T03:46:42.093Z,442.45
2018-01-02T03:49:08.792Z,90.70
2018-01-02T03:51:35.449Z,198.20
2018-01-02T03:54:02.130Z,109.68
2018-01-02T03:56:28.784Z,86.30
2018-01-02T03:58:56.178Z,547.72
2018-01-02T04:01:23.919Z,120.10
2018-01-02T04:03:51.303Z,369.08
2018-01-02T04:06:17.942Z,208.38
2018-01-02T04:08:45.238Z,94.62
2018-01-02T04:11:12.634Z,329.13
2018-01-02T04:13:40.038Z,193.02
2018-01-02T04:16:06.705Z,437.38
2018-01-02T04:18:34.092Z,162.85
2018-01-02T04:21:00.804Z,134.30
2018-01-02T04:23:27.427Z,210.35
2018-01-02T04:25:54.078Z,208.38
2018-01-02T04:28:20.740Z,411.60
2018-01-02T04:30:47.374Z,364.90
2018-01-02T04:33:14.010Z,178.00
2018-01-02T04:35:40.689Z,221.13
2018-01-02T04:38:08.377Z,133.63
2018-01-02T04:40:35.122Z,186.80
2018-01-02T04:43:02.136Z,190.57
2018-01-02T04:45:28.769Z,182.75
2018-01-02T04:47:55.445Z,331.05
2018-01-02T04:50:22.192Z,189.45
2018-01-02T04:52:49.594Z,139.07
2018-01-02T04:55:16.262Z,224.73
2018-01-02T04:57:42.893Z,374.92
2018-01-02T05:00:09.544Z,218.90
2018-01-02T05:02:36.926Z,277.73
2018-01-02T05:05:04.337Z,172.48
2018-01-02T05:07:31.040Z,151.98
2018-01-02T05:09:58.484Z,268.02
2018-01-02T05:12:25.907Z,88.03
2018-01-02T05:14:52.592Z,205.77
2018-01-02T05:17:19.216Z,208.05
2018-01-02T05:19:45.912Z,288.77
2018-01-02T05:22:12.540Z,185.35
2018-01-02T05:24:39.934Z,110.32
2018-01-02T05:27:06.608Z,345.50
2018-01-02T05:29:33.267Z,177.10
2018-01-02T05:32:00.664Z,229.52
2018-01-02T05:34:27.330Z,163.95
2018-01-02T05:36:53.976Z,301.17
2018-01-02T05:39:20.648Z,261.45
2018-01-02T05:41:47.366Z,120.97
2018-01-02T05:44:14.036Z,179.50
2018-01-02T05:46:41.448Z,99.60
2018-01-02T05:49:08.214Z,144.68
2018-01-02T05:51:35.633Z,252.07
2018-01-02T05:54:02.337Z,314.00
2018-01-02T05:56:28.996Z,325.55
2018-01-02T05:58:56.390Z,104.25
2018-01-02T06:01:23.055Z,324.88
2018-01-02T06:03:49.712Z,223.90
2018-01-02T06:06:16.361Z,163.48
2018-01-02T06:08:43.025Z,325.42
2018-01-02T06:11:10.409Z,343.40
2018-01-02T06:13:37.058Z,252.40
2018-01-02T06:16:03.735Z,179.82
2018-01-02T06:18:30.405Z,278.17
2018-01-02T06:20:57.084Z,281.05
2018-01-02T06:23:23.763Z,209.82
2018-01-02T06:25:50.410Z,282.95
2018-01-02T06:28:17.107Z,366.58
2018-01-02T06:30:43.746Z,371.48
2018-01-02T06:33:10.441Z,198.05
2018-01-02T06:35:37.099Z,216.68
2018-01-02T06:38:04.508Z,333.27
2018-01-02T06:40:32.021Z,190.75
2018-01-02T06:42:59.453Z,210.45
2018-01-02T06:45:26.100Z,301.25
2018-01-02T06:47:52.748Z,231.40
2018-01-02T06:50:19.462Z,503.67
2018-01-02T06:52:47.003Z,407.20
2018-01-02T06:55:13.670Z,583.08
2018-01-02T06:57:40.312Z,265.67
2018-01-02T07:00:07.048Z,336.45
2018-01-02T07:02:33.693Z,99.75
2018-01-02T07:05:00.362Z,137.73
2018-01-02T07:07:27.916Z,155.55
2018-01-02T07:09:54.563Z,250.57
2018-01-02T07:12:21.210Z,199.62
2018-01-02T07:14:47.898Z,129.25
2018-01-02T07:17:14.542Z,153.38
2018-01-02T07:19:41.186Z,401.27
2018-01-02T07:22:07.879Z,211.23
2018-01-02T07:24:34.522Z,158.25
2018-01-02T07:27:01.973Z,119.85
2018-01-02T07:29:28.644Z,386.62
2018-01-02T07:31:55.314Z,266.55
2018-01-02T07:34:22.741Z,133.37
2018-01-02T07:36:49.466Z,138.18
2018-01-02T07:39:16.146Z,276.25
2018-01-02T07:41:43.576Z,77.55
2018-01-02T07:44:10.247Z,344.87
2018-01-02T07:46:37.040Z,93.90
2018-01-02T07:49:03.681Z,211.20
2018-01-02T07:51:30.361Z,176.23
2018-01-02T07:53:57.033Z,103.93
2018-01-02T07:56:24.463Z,74.68
2018-01-02T07:58:51.146Z,237.55
2018-01-02T08:01:17.841Z,108.55
2018-01-02T08:03:44.521Z,97.90
2018-01-02T08:06:11.957Z,102.90
2018-01-02T08:08:38.617Z,112.32
2018-01-02T08:11:06.040Z,253.20
2018-01-02T08:13:33.566Z,157.90
2018-01-02T08:16:00.251Z,55.83
2018-01-02T08:18:26.896Z,106.25
2018-01-02T08:20:53.578Z,117.03
2018-01-02T08:23:20.968Z,94.43
2018-01-02T08:25:47.599Z,84.05
2018-01-02T08:28:14.285Z,49.50
2018-01-02T08:30:40.958Z,155.07
2018-01-02T08:33:08.376Z,152.85
2018-01-02T08:35:35.830Z,105.55
2018-01-02T08:38:02.510Z,42.22
2018-01-02T08:40:29.915Z,76.30
2018-01-02T08:42:56.607Z,74.90
2018-01-02T08:45:23.284Z,116.18
2018-01-02T08:47:49.912Z,44.78
2018-01-02T08:50:17.326Z,74.53
2018-01-02T08:52:44.007Z,98.25
2018-01-02T08:55:11.393Z,42.83
2018-01-02T08:57:38.060Z,67.85
2018-01-02T09:00:04.709Z,40.88
2018-01-02T09:02:31.364Z,53.40
2018-01-02T09:04:58.074Z,53.92
2018-01-02T09:07:24.705Z,47.10
2018-01-02T09:09:51.411Z,59.63
2018-01-02T09:12:23.986Z,80.70
2018-01-02T09:14:50.648Z,57.50
2018-01-02T09:17:17.326Z,74.78
2018-01-02T09:19:43.991Z,174.10
2018-01-02T09:22:10.643Z,40.75
2018-01-02T09:24:37.328Z,38.22
2018-01-02T09:27:04.037Z,46.05
2018-01-02T09:29:30.704Z,40.63
2018-01-02T09:31:58.189Z,44.17
2018-01-02T09:34:24.850Z,38.05
2018-01-02T09:36:51.512Z,33.35
2018-01-02T09:39:18.214Z,33.85
2018-01-02T09:41:44.958Z,32.67
2018-01-02T09:44:11.638Z,35.05
2018-01-02T09:46:38.292Z,31.42
2018-01-02T09:49:04.997Z,32.85
2018-01-02T09:51:31.747Z,36.95
2018-01-02T09:53:58.452Z,32.92
2018-01-02T09:56:25.894Z,37.95
2018-01-02T09:58:52.570Z,36.72
2018-01-02T10:01:19.322Z,35.67
2018-01-02T10:03:46.024Z,37.35
2018-01-02T10:06:12.726Z,39.20
2018-01-02T10:08:39.403Z,38.20
2018-01-02T10:11:06.148Z,44.35
2018-01-02T10:13:32.809Z,38.38
2018-01-02T10:15:59.491Z,35.60
2018-01-02T10:18:26.189Z,37.88
2018-01-02T10:20:52.889Z,39.85
2018-01-02T10:23:19.555Z,38.95
2018-01-02T10:25:46.293Z,43.30
2018-01-02T10:28:12.927Z,39.53
2018-01-02T10:30:39.679Z,40.83
2018-01-02T10:33:06.373Z,37.85
2018-01-02T10:35:33.054Z,40.78
2018-01-02T10:37:59.771Z,39.00
2018-01-02T10:40:26.462Z,38.55
2018-01-02T10:42:53.106Z,34.97
2018-01-02T10:45:19.792Z,43.25
2018-01-02T10:47:46.464Z,46.58
2018-01-02T10:50:20.025Z,41.25
2018-01-02T10:52:47.489Z,48.35
2018-01-02T10:55:14.922Z,41.45
2018-01-02T10:57:41.583Z,47.67
2018-01-02T11:00:09.934Z,50.20
2018-01-02T11:02:36.936Z,59.17
2018-01-02T11:05:03.640Z,60.63
2018-01-02T11:07:30.909Z,58.85
2018-01-02T11:09:57.638Z,48.60
2018-01-02T11:12:30.391Z,54.20
2018-01-02T11:14:57.137Z,80.47
2018-01-02T11:17:23.810Z,70.55
2018-01-02T11:19:50.524Z,60.65
2018-01-02T11:22:17.202Z,48.47
2018-01-02T11:24:44.667Z,48.15
2018-01-02T11:27:11.738Z,63.60
2018-01-02T11:29:39.184Z,48.38
2018-01-02T11:32:06.599Z,47.35
2018-01-02T11:34:34.042Z,40.03
2018-01-02T11:37:00.698Z,38.72
2018-01-02T11:39:27.372Z,36.83
2018-01-02T11:41:54.041Z,33.70
2018-01-02T11:44:21.463Z,38.03
2018-01-02T11:46:48.906Z,31.80
2018-01-02T11:49:15.829Z,32.17
2018-01-02T11:51:42.505Z,32.50
2018-01-02T11:54:09.211Z,30.35
2018-01-02T11:56:35.906Z,37.83
2018-01-02T11:59:02.628Z,31.90
2018-01-02T12:01:29.349Z,27.73
2018-01-02T12:03:56.023Z,31.67
2018-01-02T12:06:22.681Z,26.98
2018-01-02T12:08:49.374Z,31.62
2018-01-02T12:11:16.036Z,28.08
2018-01-02T12:13:42.720Z,28.15
2018-01-02T12:16:09.437Z,27.45
2018-01-02T12:18:36.120Z,29.12
2018-01-02T12:21:03.531Z,29.95
2018-01-02T12:23:30.556Z,29.15
2018-01-02T12:25:57.577Z,31.30
2018-01-02T12:28:24.247Z,31.25
2018-01-02T12:30:50.952Z,31.25
2018-01-02T12:33:17.642Z,27.75
2018-01-02T12:35:44.309Z,27.37
2018-01-02T12:38:11.789Z,27.58
2018-01-02T12:40:38.502Z,28.50
2018-01-02T12:43:05.162Z,28.13
2018-01-02T12:45:31.856Z,26.13
2018-01-02T12:47:59.347Z,22.70
2018-01-02T12:50:26.090Z,22.77
2018-01-02T12:52:52.741Z,21.90
2018-01-02T12:55:19.437Z,19.80
2018-01-02T12:57:47.044Z,23.10
2018-01-02T13:00:14.226Z,19.67
2018-01-02T13:02:40.869Z,19.77
2018-01-02T13:05:07.529Z,25.30
2018-01-02T13:07:34.261Z,24.83
2018-01-02T13:10:00.954Z,26.27
2018-01-02T13:12:27.605Z,21.63
2018-01-02T13:14:54.290Z,21.98
2018-01-02T13:17:20.973Z,18.55
2018-01-02T13:19:47.625Z,16.67
2018-01-02T13:22:14.314Z,13.33
2018-01-02T13:24:41.010Z,23.98
2018-01-02T13:27:07.663Z,24.50
2018-01-02T13:29:34.382Z,27.35
2018-01-02T13:32:01.782Z,21.20
2018-01-02T13:34:28.527Z,22.90
2018-01-02T13:36:55.207Z,28.65
2018-01-02T13:39:21.861Z,32.22
2018-01-02T13:41:50.204Z,28.50
2018-01-02T13:44:16.852Z,23.73
2018-01-02T13:46:43.510Z,28.62
2018-01-02T13:49:10.226Z,28.92
2018-01-02T13:51:36.899Z,28.45
2018-01-02T13:54:03.582Z,26.33
2018-01-02T13:56:30.241Z,33.65
2018-01-02T13:58:57.007Z,27.45
2018-01-02T14:01:23.669Z,28.77
2018-01-02T14:03:50.398Z,28.27
2018-01-02T14:06:17.102Z,31.50
2018-01-02T14:08:43.792Z,29.12
2018-01-02T14:11:10.645Z,29.40
2018-01-02T14:13:37.317Z,29.25
2018-01-02T14:16:04.739Z,32.40
2018-01-02T14:18:31.449Z,35.30
2018-01-02T14:20:58.121Z,32.45
2018-01-02T14:23:24.796Z,30.33
2018-01-02T14:25:52.207Z,33.42
2018-01-02T14:28:18.859Z,32.88
2018-01-02T14:30:45.553Z,33.35
2018-01-02T14:33:12.975Z,32.42
2018-01-02T14:35:39.641Z,33.90
2018-01-02T14:38:06.370Z,31.30
2018-01-02T14:40:33.064Z,29.37
2018-01-02T14:42:59.742Z,29.77
2018-01-02T14:45:26.393Z,30.48
2018-01-02T14:47:53.053Z,29.70
2018-01-02T14:50:19.768Z,28.10
2018-01-02T14:52:46.422Z,30.15
2018-01-02T14:55:13.068Z,30.25
2018-01-02T14:57:39.810Z,30.80
2018-01-02T15:00:06.525Z,28.42
2018-01-02T15:02:33.250Z,30.25
2018-01-02T15:04:59.917Z,36.50
2018-01-02T15:07:26.614Z,29.23
2018-01-02T15:09:54.074Z,33.83
2018-01-02T15:12:21.531Z,30.58
2018-01-02T15:14:48.915Z,35.58
2018-01-02T15:17:15.662Z,31.52
2018-01-02T15:19:42.336Z,36.60
2018-01-02T15:22:09.076Z,32.78
2018-01-02T15:24:35.748Z,33.30
2018-01-02T15:27:02.398Z,36.55
2018-01-02T15:29:29.058Z,44.58
2018-01-02T15:31:56.497Z,46.20
2018-01-02T15:34:23.824Z,43.05
2018-01-02T15:36:50.584Z,41.17
2018-01-02T15:39:18.043Z,43.95
2018-01-02T15:41:44.722Z,45.83
2018-01-02T15:44:11.385Z,47.30
2018-01-02T15:46:39.039Z,49.75
2018-01-02T15:49:06.435Z,39.50
2018-01-02T15:51:33.180Z,48.85
2018-01-02T15:53:59.899Z,49.03
2018-01-02T15:56:26.550Z,41.67
2018-01-02T15:58:53.207Z,46.72
2018-01-02T16:01:19.909Z,53.67
2018-01-02T16:03:47.334Z,50.28
2018-01-02T16:06:14.993Z,43.47
2018-01-02T16:08:41.666Z,51.95
2018-01-02T16:11:09.052Z,39.72
2018-01-02T16:13:35.706Z,50.45
2018-01-02T16:16:02.782Z,48.72
2018-01-02T16:18:29.440Z,45.53
2018-01-02T16:20:56.080Z,45.85
2018-01-02T16:23:22.758Z,51.17
2018-01-02T16:25:50.145Z,48.55
2018-01-02T16:28:16.818Z,49.83
2018-01-02T16:30:43.597Z,43.90
2018-01-02T16:33:10.997Z,56.90
2018-01-02T16:35:37.665Z,48.45
2018-01-02T16:38:04.332Z,67.97
2018-01-02T16:40:30.981Z,58.92
2018-01-02T16:42:57.654Z,61.72
2018-01-02T16:45:24.350Z,61.97
2018-01-02T16:47:51.011Z,60.38
2018-01-02T16:50:18.490Z,53.42
2018-01-02T16:52:45.180Z,54.65
2018-01-02T16:55:12.611Z,61.80
2018-01-02T16:57:39.277Z,61.53
2018-01-02T17:00:06.845Z,63.38
2018-01-02T17:02:33.499Z,58.03
2018-01-02T17:05:00.188Z,62.30
2018-01-02T17:07:27.592Z,55.83
2018-01-02T17:09:54.238Z,50.33
2018-01-02T17:12:21.284Z,64.93
2018-01-02T17:14:47.953Z,64.53
2018-01-02T17:17:14.750Z,62.15
2018-01-02T17:19:41.380Z,57.40
2018-01-02T17:22:08.082Z,62.67
2018-01-02T17:24:34.758Z,69.12
2018-01-02T17:27:01.404Z,64.15
2018-01-02T17:29:28.093Z,59.70
2018-01-02T17:31:54.737Z,71.80
2018-01-02T17:34:21.681Z,72.95
2018-01-02T17:36:48.389Z,67.50
2018-01-02T17:39:15.090Z,61.47
2018-01-02T17:41:41.737Z,78.10
2018-01-02T17:44:08.411Z,61.35
2018-01-02T17:46:35.064Z,66.75
2018-01-02T17:49:01.730Z,38.92
2018-01-02T17:51:28.391Z,44.20
2018-01-02T17:53:55.080Z,39.22
2018-01-02T17:56:21.748Z,32.75
2018-01-02T17:58:48.428Z,36.88
2018-01-02T18:01:15.110Z,42.25
2018-01-02T18:03:41.783Z,39.05
2018-01-02T18:06:08.498Z,37.92
2018-01-02T18:08:35.178Z,35.90
2018-01-02T18:11:01.856Z,40.33
2018-01-02T18:13:29.340Z,40.17
2018-01-02T18:15:56.011Z,29.75
2018-01-02T18:18:22.690Z,33.15
2018-01-02T18:20:49.367Z,43.80
2018-01-02T18:23:16.863Z,46.00
2018-01-02T18:25:43.828Z,57.28
2018-01-02T18:28:11.541Z,39.08
2018-01-02T18:30:39.367Z,43.67
2018-01-02T18:33:06.056Z,40.10
2018-01-02T18:35:33.449Z,40.03
2018-01-02T18:38:00.092Z,42.58
2018-01-02T18:40:26.801Z,51.42
2018-01-02T18:42:53.457Z,42.22
2018-01-02T18:45:20.989Z,53.45
2018-01-02T18:47:48.474Z,46.13
2018-01-02T18:50:15.877Z,46.10
2018-01-02T18:52:42.553Z,45.58
2018-01-02T18:55:10.014Z,49.53
2018-01-02T18:57:37.432Z,49.42
2018-01-02T19:00:04.138Z,46.60
2018-01-02T19:02:30.848Z,40.83
2018-01-02T19:04:58.399Z,41.47
2018-01-02T19:07:25.092Z,41.13
2018-01-02T19:09:51.873Z,37.30
2018-01-02T19:12:19.482Z,38.13
2018-01-02T19:14:46.933Z,43.28
2018-01-02T19:17:14.373Z,36.13
2018-01-02T19:19:41.323Z,37.83
2018-01-02T19:22:08.065Z,33.78
2018-01-02T19:24:34.810Z,39.80
2018-01-02T19:27:01.589Z,34.08
2018-01-02T19:29:28.973Z,41.95
2018-01-02T19:31:55.669Z,33.35
2018-01-02T19:34:22.350Z,39.50
2018-01-02T19:36:49.093Z,47.05
2018-01-02T19:39:16.514Z,41.30
2018-01-02T19:41:44.046Z,39.78
2018-01-02T19:44:10.739Z,47.33
2018-01-02T19:46:38.158Z,55.17
2018-01-02T19:49:05.543Z,46.92
2018-01-02T19:51:32.269Z,50.60
2018-01-02T19:53:58.961Z,47.50
2018-01-02T19:56:26.626Z,54.88
2018-01-02T19:58:53.317Z,46.72
2018-01-02T20:01:19.960Z,53.65
2018-01-02T20:03:46.691Z,54.80
2018-01-02T20:06:13.353Z,35.85
2018-01-02T20:08:40.759Z,39.97
2018-01-02T20:11:08.185Z,36.25
2018-01-02T20:13:35.017Z,51.85
2018-01-02T20:16:01.696Z,40.67
2018-01-02T20:18:35.102Z,39.83
2018-01-02T20:21:02.519Z,35.42
2018-01-02T20:23:29.483Z,32.22
2018-01-02T20:25:57.019Z,40.10
2018-01-02T20:28:23.721Z,35.00
2018-01-02T20:30:50.397Z,31.95
2018-01-02T20:33:17.087Z,35.42
2018-01-02T20:35:44.504Z,31.48
2018-01-02T20:38:11.193Z,29.75
2018-01-02T20:40:38.700Z,28.58
2018-01-02T20:43:05.358Z,31.55
2018-01-02T20:45:32.087Z,35.30
2018-01-02T20:47:58.838Z,30.23
2018-01-02T20:50:25.477Z,34.40
2018-01-02T20:52:52.213Z,34.72
2018-01-02T20:55:18.996Z,33.15
2018-01-02T20:57:45.671Z,31.70
2018-01-02T21:00:13.258Z,29.15
2018-01-02T21:02:39.977Z,32.50
2018-01-02T21:05:07.555Z,31.50
2018-01-02T21:07:34.184Z,37.45
2018-01-02T21:10:01.627Z,35.67
2018-01-02T21:12:28.979Z,31.23
2018-01-02T21:14:55.635Z,42.92
2018-01-02T21:17:23.425Z,31.67
2018-01-02T21:19:50.072Z,33.03
2018-01-02T21:22:16.808Z,28.87
2018-01-02T21:24:44.260Z,29.90
2018-01-02T21:27:10.974Z,29.17
2018-01-02T21:29:38.404Z,28.08
2018-01-02T21:32:05.112Z,27.23
2018-01-02T21:34:32.522Z,25.73
2018-01-02T21:36:59.186Z,24.17
2018-01-02T21:39:25.877Z,26.00
2018-01-02T21:41:52.528Z,27.00
2018-01-02T21:44:19.218Z,27.65
2018-01-02T21:46:45.899Z,25.08
2018-01-02T21:49:12.537Z,30.77
2018-01-02T21:51:39.203Z,22.37
2018-01-02T21:54:05.890Z,22.60
2018-01-02T21:56:32.593Z,24.73
2018-01-02T21:58:59.260Z,29.90
2018-01-02T22:01:25.932Z,32.85
2018-01-02T22:03:53.348Z,30.70
2018-01-02T22:06:20.064Z,33.72
2018-01-02T22:08:46.746Z,35.38
2018-01-02T22:11:13.414Z,34.15
2018-01-02T22:13:40.077Z,33.75
2018-01-02T22:16:07.535Z,33.80
2018-01-02T22:18:34.917Z,34.28
2018-01-02T22:21:01.593Z,33.58
2018-01-02T22:23:28.245Z,31.12
2018-01-02T22:25:54.898Z,37.60
2018-01-02T22:28:21.611Z,37.40
2018-01-02T22:30:48.769Z,47.25
2018-01-02T22:33:15.515Z,32.30
2018-01-02T22:35:42.236Z,33.17
2018-01-02T22:38:09.066Z,40.25
2018-01-02T22:40:36.447Z,50.42
2018-01-02T22:43:03.088Z,41.35
2018-01-02T22:45:29.761Z,49.08
2018-01-02T22:47:56.499Z,57.05
2018-01-02T22:50:23.344Z,59.50
2018-01-02T22:52:50.020Z,55.83
2018-01-02T22:55:17.475Z,57.13
2018-01-02T22:57:44.147Z,68.20
2018-01-02T23:00:10.933Z,60.75
2018-01-02T23:02:37.617Z,59.65
2018-01-02T23:05:05.025Z,50.75
2018-01-02T23:07:31.682Z,46.72
2018-01-02T23:09:58.489Z,48.87
2018-01-02T23:12:25.226Z,60.42
2018-01-02T23:14:51.921Z,56.25
2018-01-02T23:17:18.699Z,49.35
2018-01-02T23:19:46.078Z,42.20
2018-01-02T23:22:12.884Z,51.20
2018-01-02T23:24:39.672Z,47.03
2018-01-02T23:27:06.408Z,38.40
2018-01-02T23:29:33.210Z,49.05
2018-01-02T23:31:59.967Z,49.42
2018-01-02T23:34:26.648Z,57.30
2018-01-02T23:36:53.309Z,44.88
2018-01-02T23:39:19.973Z,41.90
2018-01-02T23:41:46.617Z,45.88
2018-01-02T23:44:13.256Z,48.30
2018-01-02T23:46:40.798Z,56.28
2018-01-02T23:49:07.449Z,55.95
2018-01-02T23:51:34.171Z,76.70
2018-01-02T23:54:00.838Z,43.65
2018-01-02T23:56:27.466Z,37.72
2018-01-02T23:58:54.138Z,40.45
